Time;durP1;ratioP1;P1;durP2;ratioP2;P2;SDS_P1;SDS_P2;PMS_P1;PMS_P2;Temp;Humidity;BMP_temperature;BMP_pressure;BME280_temperature;BME280_humidity;BME280_pressure;Samples;Min_cycle;Max_cycle;Signal;HPM_P1;HPM_P2
2022/02/02 00:04:31;;;;;;;2.30;0.70;;;6.60;1.00;;;;;;5118726;27;20496;-59
2022/02/02 00:09:26;;;;;;;5.13;1.40;;;6.60;1.00;;;;;;5117550;27;20455;-60
2022/02/02 00:12:10;;;;;;;3.73;1.03;;;6.60;1.00;;;;;;5117462;27;20462;-59
2022/02/02 00:17:07;;;;;;;5.37;1.83;;;6.70;1.00;;;;;;5115934;27;20443;-58
2022/02/02 00:22:12;;;;;;;7.00;1.60;;;6.80;1.00;;;;;;5117314;27;21042;-59
2022/02/02 00:27:14;;;;;;;4.57;1.80;;;6.80;1.00;;;;;;5119571;27;20851;-59
2022/02/02 00:29:46;;;;;;;6.43;1.70;;;6.90;1.00;;;;;;5125640;27;20463;-58
2022/02/02 00:32:20;;;;;;;7.83;1.90;;;;;;;;;;5127408;27;20491;-58
2022/02/02 00:34:47;;;;;;;11.07;2.20;;;7.00;1.00;;;;;;5125394;27;20454;-59
2022/02/02 00:37:14;;;;;;;5.83;2.10;;;6.90;1.00;;;;;;5124728;27;20442;-59
2022/02/02 00:39:40;;;;;;;7.10;2.23;;;6.90;1.00;;;;;;5127819;27;20443;-58
2022/02/02 00:42:06;;;;;;;6.50;2.40;;;7.00;1.00;;;;;;5124214;27;20453;-58
2022/02/02 00:44:33;;;;;;;12.77;2.93;;;7.00;1.00;;;;;;5089207;28;20226;-59
2022/02/02 00:46:58;;;;;;;9.20;2.20;;;7.00;1.00;;;;;;5080996;28;20179;-59
2022/02/02 00:49:24;;;;;;;5.90;2.20;;;6.90;1.00;;;;;;5086687;28;20451;-59
2022/02/02 00:51:54;;;;;;;8.83;2.30;;;7.00;1.00;;;;;;5080716;28;20183;-58
2022/02/02 00:54:22;;;;;;;8.50;2.07;;;7.00;1.00;;;;;;5072569;28;20183;-58
2022/02/02 00:56:49;;;;;;;7.10;2.60;;;6.90;1.00;;;;;;5075263;28;20449;-58
2022/02/02 00:59:15;;;;;;;10.10;2.60;;;7.00;1.00;;;;;;5077968;28;20445;-59
2022/02/02 01:01:41;;;;;;;6.33;2.40;;;7.10;1.00;;;;;;5077391;28;20453;-59
2022/02/02 01:04:07;;;;;;;9.53;2.57;;;7.10;1.00;;;;;;5079044;28;20445;-59
2022/02/02 01:06:37;;;;;;;8.93;1.93;;;7.00;1.00;;;;;;5078793;28;20183;-58
2022/02/02 01:09:17;;;;;;;10.57;2.47;;;6.90;1.00;;;;;;5074178;28;20455;-59
2022/02/02 01:12:03;;;;;;;8.80;3.27;;;6.90;1.00;;;;;;5078315;28;20449;-59
2022/02/02 01:20:15;;;;;;;8.07;2.20;;;7.00;1.00;;;;;;5081224;28;20578;-59
2022/02/02 01:28:10;;;;;;;10.20;2.30;;;7.20;1.00;;;;;;5076990;28;20502;-56
2022/02/02 01:30:36;;;;;;;8.17;2.20;;;7.20;1.00;;;;;;5080216;28;20482;-58
2022/02/02 01:33:02;;;;;;;10.97;2.43;;;7.20;1.00;;;;;;5075982;28;20441;-59
2022/02/02 01:35:27;;;;;;;10.97;2.60;;;7.20;1.00;;;;;;5076580;28;20243;-58
2022/02/02 01:37:53;;;;;;;8.87;2.90;;;7.20;1.00;;;;;;5073094;28;20193;-59
2022/02/02 01:40:33;;;;;;;5.10;2.20;;;7.20;1.00;;;;;;5079306;28;20785;-58
2022/02/02 01:43:05;;;;;;;10.53;2.90;;;7.20;1.00;;;;;;5075619;28;20444;-59
2022/02/02 01:45:44;;;;;;;9.37;2.37;;;7.10;1.00;;;;;;5102867;27;20449;-59
2022/02/02 01:53:41;;;;;;;7.60;2.60;;;6.60;1.00;;;;;;5128766;27;20435;-59
2022/02/02 01:56:11;;;;;;;16.23;3.27;;;6.50;1.00;;;;;;5118063;27;20434;-59
2022/02/02 02:01:09;;;;;;;17.13;3.10;;;6.40;1.00;;;;;;5120826;28;20449;-58
2022/02/02 02:03:36;;;;;;;15.77;5.33;;;6.30;1.00;;;;;;5120560;28;20550;-59
2022/02/02 02:06:02;;;;;;;9.00;2.20;;;6.30;1.00;;;;;;5117361;28;20843;-59
2022/02/02 02:08:28;;;;;;;8.43;3.37;;;6.40;1.00;;;;;;5107440;28;20988;-58
2022/02/02 02:10:54;;;;;;;4.50;2.20;;;6.40;1.00;;;;;;5128589;28;20478;-59
2022/02/02 02:14:30;;;;;;;10.03;3.33;;;6.50;1.00;;;;;;5106819;27;20188;-59
2022/02/02 02:16:09;;;;;;;14.23;3.30;;;;;;;;;;5117430;27;20292;-58
2022/02/02 02:18:34;;;;;;;16.30;2.90;;;6.60;1.00;;;;;;5130290;27;20550;-59
2022/02/02 02:21:00;;;;;;;8.20;2.30;;;6.60;1.00;;;;;;5126479;27;20457;-58
2022/02/02 02:23:26;;;;;;;10.27;2.47;;;6.70;1.00;;;;;;5127908;27;20650;-59
2022/02/02 02:25:51;;;;;;;22.13;3.20;;;6.70;1.00;;;;;;5127568;27;20598;-58
2022/02/02 02:28:34;;;;;;;6.00;2.10;;;6.80;1.00;;;;;;5131827;27;20442;-58
2022/02/02 02:31:12;;;;;;;10.43;2.77;;;6.80;1.00;;;;;;5128435;27;20212;-59
2022/02/02 02:55:57;;;;;;;13.33;3.17;;;7.00;1.00;;;;;;5129783;27;20542;-58
2022/02/02 03:50:08;;;;;;;13.63;2.37;;;7.00;1.00;;;;;;5132610;27;20472;-59
2022/02/02 04:00:19;;;;;;;10.47;2.40;;;7.20;1.00;;;;;;5131550;27;20439;-59
2022/02/02 04:05:32;;;;;;;8.23;2.57;;;7.10;1.00;;;;;;5130247;27;20414;-58
2022/02/02 04:10:43;;;;;;;16.73;2.97;;;7.10;1.00;;;;;;5130692;27;20441;-58
2022/02/02 05:07:46;;;;;;;10.07;2.53;;;;;;;;;;5062607;28;20957;-59
2022/02/02 05:10:31;;;;;;;10.03;2.30;;;6.50;1.00;;;;;;5122845;27;20474;-58
2022/02/02 05:16:03;;;;;;;9.50;2.30;;;6.50;1.00;;;;;;5098830;27;20480;-58
2022/02/02 05:53:04;;;;;;;13.57;2.70;;;6.50;1.00;;;;;;5128892;27;20435;-58
2022/02/02 05:55:37;;;;;;;8.67;2.77;;;6.40;1.00;;;;;;5112482;28;20502;-58
2022/02/02 05:58:07;;;;;;;9.50;2.07;;;6.50;1.00;;;;;;5126830;28;20177;-59
2022/02/02 06:00:33;;;;;;;9.07;2.43;;;6.40;1.00;;;;;;5129738;28;20955;-58
2022/02/02 06:03:02;;;;;;;11.57;4.17;;;6.30;1.00;;;;;;5127892;27;20439;-59
2022/02/02 06:05:29;;;;;;;7.20;2.30;;;6.30;1.00;;;;;;5128695;28;20525;-58
2022/02/02 06:07:56;;;;;;;7.63;2.90;;;6.30;1.00;;;;;;5111274;28;20458;-59
2022/02/02 06:10:23;;;;;;;12.97;2.70;;;6.30;1.00;;;;;;5126973;27;20797;-58
2022/02/02 06:12:53;;;;;;;9.63;2.27;;;6.30;1.00;;;;;;5130225;28;20449;-58
2022/02/02 06:15:20;;;;;;;11.43;3.47;;;6.40;1.00;;;;;;5126371;27;20503;-58
2022/02/02 06:17:50;;;;;;;10.17;2.20;;;6.40;1.00;;;;;;5129533;27;20492;-59
2022/02/02 06:20:16;;;;;;;19.23;2.67;;;6.30;1.00;;;;;;5125576;28;20455;-59
2022/02/02 06:22:59;;;;;;;13.77;2.80;;;6.40;1.00;;;;;;5128861;28;20457;-59
2022/02/02 06:25:29;;;;;;;10.20;3.00;;;6.40;1.00;;;;;;5110547;28;20447;-58
2022/02/02 06:28:06;;;;;;;10.37;2.93;;;6.40;1.00;;;;;;5127894;28;20927;-59
2022/02/02 06:30:33;;;;;;;7.17;2.20;;;6.40;1.00;;;;;;5128150;28;20466;-58
2022/02/02 06:33:13;;;;;;;5.37;1.47;;;6.30;1.00;;;;;;5127553;27;20465;-58
2022/02/02 06:35:39;;;;;;;13.20;2.30;;;5.50;1.00;;;;;;5128684;28;20828;-58
2022/02/02 06:38:05;;;;;;;12.03;2.10;;;6.40;1.00;;;;;;5126240;28;20543;-58
2022/02/02 06:40:33;;;;;;;8.53;2.13;;;6.40;1.00;;;;;;5128254;28;20268;-58
2022/02/02 06:43:00;;;;;;;7.90;2.77;;;6.30;1.00;;;;;;5128573;27;20467;-58
2022/02/02 06:45:26;;;;;;;9.30;2.73;;;6.40;1.00;;;;;;5126356;28;20441;-59
2022/02/02 06:47:52;;;;;;;11.40;2.30;;;6.40;1.00;;;;;;5126037;28;20446;-58
2022/02/02 06:50:27;;;;;;;8.93;2.13;;;6.40;1.00;;;;;;5125804;28;20521;-59
2022/02/02 07:07:42;;;;;;;9.63;2.80;;;6.50;1.00;;;;;;5102253;27;20438;-59
2022/02/02 07:31:19;;;;;;;18.30;4.57;;;6.30;1.00;;;;;;5129343;27;20474;-59
2022/02/02 07:33:43;;;;;;;7.63;2.50;;;6.30;1.00;;;;;;5130525;27;20507;-59
2022/02/02 07:36:16;;;;;;;12.90;2.80;;;6.30;1.00;;;;;;5129145;27;20466;-59
2022/02/02 07:38:55;;;;;;;10.00;2.07;;;6.30;1.00;;;;;;5131041;27;20446;-59
2022/02/02 07:41:32;;;;;;;9.63;3.30;;;6.30;1.00;;;;;;5127376;27;20761;-58
2022/02/02 07:44:06;;;;;;;11.37;3.07;;;6.40;1.00;;;;;;5126362;27;20471;-59
2022/02/02 07:46:33;;;;;;;16.33;3.23;;;6.50;1.00;;;;;;5130005;27;20449;-59
2022/02/02 07:49:00;;;;;;;9.50;2.70;;;6.40;1.00;;;;;;5132153;27;20449;-59
2022/02/02 07:51:27;;;;;;;10.13;2.13;;;6.30;1.00;;;;;;5130689;27;20454;-58
2022/02/02 07:53:57;;;;;;;9.43;2.90;;;6.20;1.00;;;;;;5130025;27;20575;-59
2022/02/02 07:56:28;;;;;;;9.63;2.13;;;6.10;1.00;;;;;;5127155;27;20469;-58
2022/02/02 07:59:12;;;;;;;9.10;2.50;;;6.20;1.00;;;;;;5126815;27;20509;-57
2022/02/02 08:01:38;;;;;;;5.63;1.97;;;6.20;1.00;;;;;;5131439;27;20435;-58
2022/02/02 08:04:04;;;;;;;8.50;3.60;;;;;;;;;;5128923;27;20873;-59
2022/02/02 08:06:30;;;;;;;9.10;1.87;;;6.10;1.00;;;;;;5130048;27;20222;-59
2022/02/02 08:08:56;;;;;;;11.43;2.87;;;;;;;;;;5130128;27;20466;-59
2022/02/02 08:11:31;;;;;;;6.53;1.87;;;6.00;1.00;;;;;;5130585;27;20216;-59
2022/02/02 08:14:00;;;;;;;13.60;2.93;;;6.10;1.00;;;;;;5130302;27;20434;-58
2022/02/02 08:16:26;;;;;;;12.67;3.20;;;6.10;1.00;;;;;;5129540;27;20446;-58
2022/02/02 08:18:53;;;;;;;11.27;2.30;;;6.10;1.00;;;;;;5112703;27;20673;-58
2022/02/02 08:21:19;;;;;;;8.80;2.20;;;6.00;1.00;;;;;;5127576;27;20439;-58
2022/02/02 08:23:46;;;;;;;8.80;2.23;;;;;;;;;;5129528;27;20454;-59
2022/02/02 08:26:16;;;;;;;7.23;2.23;;;6.10;1.00;;;;;;5129342;27;20356;-58
2022/02/02 08:28:43;;;;;;;6.47;3.10;;;6.10;1.00;;;;;;5130298;27;20459;-58
2022/02/02 08:31:09;;;;;;;10.30;2.80;;;;;;;;;;5132269;27;20468;-58
2022/02/02 08:33:41;;;;;;;8.33;2.60;;;5.90;1.00;;;;;;5130244;27;20447;-58
2022/02/02 08:36:15;;;;;;;12.53;2.60;;;5.90;1.00;;;;;;5131271;27;20409;-59
2022/02/02 08:39:13;;;;;;;10.63;3.40;;;5.90;1.00;;;;;;5126565;27;20951;-58
2022/02/02 08:41:48;;;;;;;15.00;3.40;;;5.90;1.00;;;;;;5129511;27;20446;-58
2022/02/02 08:44:28;;;;;;;8.90;2.50;;;;;;;;;;5128890;27;20443;-59
2022/02/02 08:47:00;;;;;;;16.03;2.63;;;6.00;1.00;;;;;;5128443;27;20492;-58
2022/02/02 08:49:27;;;;;;;7.60;3.17;;;6.10;1.00;;;;;;5131374;27;20443;-58
2022/02/02 08:51:52;;;;;;;9.07;2.83;;;6.10;1.00;;;;;;5128912;27;20481;-58
2022/02/02 08:54:45;;;;;;;6.87;2.50;;;6.10;1.00;;;;;;5129801;27;20401;-58
2022/02/02 08:57:28;;;;;;;14.00;3.87;;;6.10;1.00;;;;;;5127013;27;20209;-58
2022/02/02 09:00:09;;;;;;;9.93;2.93;;;6.30;1.00;;;;;;5129823;27;20439;-59
2022/02/02 09:02:36;;;;;;;6.80;2.63;;;6.30;1.00;;;;;;5126549;27;20941;-58
2022/02/02 09:05:20;;;;;;;12.40;2.87;;;6.40;1.00;;;;;;5130528;27;20449;-58
2022/02/02 09:07:48;;;;;;;12.00;2.97;;;6.30;1.00;;;;;;5124860;27;20448;-58
2022/02/02 09:10:20;;;;;;;11.33;2.50;;;;;;;;;;5128166;27;20458;-59
2022/02/02 09:23:30;;;;;;;9.23;2.60;;;6.40;1.00;;;;;;5129990;27;20769;-58
2022/02/02 09:34:16;;;;;;;6.80;2.80;;;6.50;1.00;;;;;;5075013;27;20446;-58
2022/02/02 09:36:44;;;;;;;9.97;2.57;;;6.60;1.00;;;;;;5129118;27;21053;-58
2022/02/02 09:39:19;;;;;;;9.80;3.30;;;6.70;1.00;;;;;;5131080;27;20450;-57
2022/02/02 09:41:51;;;;;;;10.30;3.00;;;6.70;1.00;;;;;;5131056;27;20521;-58
2022/02/02 09:44:21;;;;;;;6.87;2.73;;;6.80;1.00;;;;;;5128662;27;20438;-58
2022/02/02 09:47:03;;;;;;;13.43;2.13;;;6.80;1.00;;;;;;5131182;27;20934;-58
2022/02/02 09:49:42;;;;;;;12.97;3.60;;;6.80;1.00;;;;;;5127701;27;20553;-57
2022/02/02 09:52:14;;;;;;;11.67;3.13;;;7.10;1.00;;;;;;5128027;27;20430;-57
2022/02/02 09:54:51;;;;;;;6.70;2.83;;;7.00;1.00;;;;;;5130719;27;20490;-57
2022/02/02 10:00:12;;;;;;;11.67;2.50;;;7.00;1.00;;;;;;5125811;28;20446;-58
2022/02/02 10:05:32;;;;;;;9.63;2.67;;;7.00;1.00;;;;;;5128691;28;20469;-57
2022/02/02 10:15:54;;;;;;;8.40;1.77;;;7.10;1.00;;;;;;5131189;28;20192;-57
2022/02/02 10:18:31;;;;;;;6.43;2.27;;;7.10;1.00;;;;;;5129853;27;20928;-57
2022/02/02 10:20:57;;;;;;;17.27;3.20;;;7.20;1.00;;;;;;5130844;28;20401;-57
2022/02/02 10:23:25;;;;;;;9.87;2.23;;;7.10;1.00;;;;;;5125965;27;20450;-58
2022/02/02 10:25:57;;;;;;;8.43;2.57;;;7.00;1.00;;;;;;5130820;27;20434;-58
2022/02/02 10:28:32;;;;;;;11.53;2.00;;;7.00;1.00;;;;;;5129088;27;20455;-57
2022/02/02 10:31:05;;;;;;;10.80;2.80;;;7.00;1.00;;;;;;5129166;27;20474;-57
2022/02/02 10:33:32;;;;;;;8.10;2.37;;;7.10;1.00;;;;;;5130695;27;20442;-57
2022/02/02 10:36:10;;;;;;;6.60;2.57;;;7.20;1.00;;;;;;5131901;27;21237;-57
2022/02/02 10:38:47;;;;;;;8.20;2.17;;;7.10;1.00;;;;;;5134516;27;20908;-57
2022/02/02 10:41:26;;;;;;;10.47;2.43;;;7.10;1.00;;;;;;5132494;27;20871;-57
2022/02/02 10:43:58;;;;;;;11.63;2.83;;;7.00;1.00;;;;;;5134380;27;20517;-57
2022/02/02 10:47:16;;;;;;;10.77;2.83;;;7.00;1.00;;;;;;5130517;27;20510;-57
2022/02/02 10:49:21;;;;;;;11.37;2.97;;;7.00;1.00;;;;;;5118559;27;20462;-58
2022/02/02 10:51:58;;;;;;;13.97;2.80;;;7.00;1.00;;;;;;5132245;27;21149;-57
2022/02/02 10:55:18;;;;;;;13.37;2.93;;;7.00;1.00;;;;;;5133788;27;20545;-57
2022/02/02 11:00:03;;;;;;;9.30;1.83;;;7.20;1.00;;;;;;5134130;27;20427;-57
2022/02/02 11:07:48;;;;;;;8.67;2.40;;;7.40;1.00;;;;;;5132551;27;20507;-58
2022/02/02 11:10:15;;;;;;;8.60;2.27;;;7.40;1.00;;;;;;5133176;27;20469;-58
2022/02/02 11:12:41;;;;;;;9.23;3.13;;;7.30;1.00;;;;;;5134188;27;20438;-57
2022/02/02 11:15:13;;;;;;;9.57;2.60;;;7.30;1.00;;;;;;5132086;27;20479;-57
2022/02/02 11:17:55;;;;;;;19.40;3.30;;;7.30;1.00;;;;;;5133750;27;20423;-58
2022/02/02 11:20:22;;;;;;;9.97;3.03;;;7.30;1.00;;;;;;5130399;27;20444;-57
2022/02/02 11:22:58;;;;;;;8.13;2.63;;;7.50;1.00;;;;;;5133767;27;20496;-57
2022/02/02 11:25:23;;;;;;;5.13;1.87;;;7.60;1.00;;;;;;5131027;27;20778;-57
2022/02/02 11:27:58;;;;;;;7.50;2.00;;;7.60;1.00;;;;;;5135215;27;20517;-58
2022/02/02 11:30:23;;;;;;;7.80;2.40;;;7.70;1.00;;;;;;5131997;27;20681;-57
2022/02/02 11:33:10;;;;;;;7.00;2.00;;;7.80;1.00;;;;;;5133339;27;20442;-58
2022/02/02 11:35:46;;;;;;;12.70;2.60;;;7.80;1.00;;;;;;5133416;27;20204;-57
2022/02/02 11:38:25;;;;;;;10.63;2.37;;;7.70;1.00;;;;;;5130941;27;20446;-57
2022/02/02 11:41:20;;;;;;;4.93;2.27;;;7.90;1.00;;;;;;5132183;27;20871;-58
2022/02/02 11:49:21;;;;;;;8.30;1.50;;;7.80;1.00;;;;;;5129463;27;20802;-57
2022/02/02 11:51:50;;;;;;;7.20;2.00;;;7.80;1.00;;;;;;5133509;27;20454;-57
2022/02/02 11:54:18;;;;;;;9.93;2.27;;;7.80;1.00;;;;;;5131761;27;20457;-57
2022/02/02 11:57:23;;;;;;;7.87;1.73;;;7.70;1.00;;;;;;5132918;27;20628;-58
2022/02/02 12:00:07;;;;;;;10.13;2.57;;;7.60;1.00;;;;;;5129635;27;20439;-57
2022/02/02 12:35:54;;;;;;;5.07;1.60;;;7.80;1.00;;;;;;5130846;27;20430;-57
2022/02/02 12:58:12;;;;;;;8.00;2.00;;;7.50;1.00;;;;;;5129916;27;20441;-57
2022/02/02 13:03:12;;;;;;;6.60;1.57;;;7.50;1.00;;;;;;5132327;27;20439;-57
2022/02/02 13:05:40;;;;;;;9.27;2.33;;;7.50;1.00;;;;;;5132289;27;20497;-58
2022/02/02 13:08:06;;;;;;;3.23;1.37;;;7.60;1.00;;;;;;5131702;27;20898;-58
2022/02/02 13:10:34;;;;;;;4.67;2.43;;;7.40;1.00;;;;;;5132124;27;20947;-58
2022/02/02 13:13:22;;;;;;;8.13;2.50;;;7.40;1.00;;;;;;5132127;27;20429;-57
2022/02/02 13:15:53;;;;;;;8.77;1.80;;;7.50;1.00;;;;;;5113917;27;20446;-57
2022/02/02 13:26:56;;;;;;;3.97;1.33;;;7.50;1.00;;;;;;5128733;27;20451;-57
2022/02/02 13:29:36;;;;;;;10.73;2.23;;;7.50;1.00;;;;;;5131768;27;20439;-57
2022/02/02 13:32:08;;;;;;;6.00;1.60;;;;;;;;;;5113277;27;20474;-57
2022/02/02 13:47:03;;;;;;;5.47;1.50;;;7.90;1.00;;;;;;5086643;28;20520;-57
2022/02/02 13:49:43;;;;;;;16.23;1.90;;;7.90;1.00;;;;;;5087527;28;20424;-57
2022/02/02 13:52:26;;;;;;;9.73;2.20;;;7.80;1.00;;;;;;5114553;27;20443;-57
2022/02/02 13:55:06;;;;;;;3.30;1.03;;;7.60;1.00;;;;;;5131605;27;20772;-57
2022/02/02 13:58:17;;;;;;;5.20;1.17;;;7.60;1.00;;;;;;5131351;28;20449;-57
2022/02/02 14:00:32;;;;;;;2.80;1.23;;;7.70;1.00;;;;;;5127660;28;20398;-58
2022/02/02 14:06:18;;;;;;;3.83;1.60;;;7.90;1.00;;;;;;5130418;27;20506;-58
2022/02/02 14:33:02;;;;;;;5.80;1.87;;;8.10;1.00;;;;;;5134949;27;20429;-58
2022/02/02 14:35:27;;;;;;;2.90;1.07;;;8.10;1.00;;;;;;5115840;27;20522;-58
2022/02/02 14:37:54;;;;;;;8.00;2.20;;;8.20;1.00;;;;;;5134023;27;20439;-59
2022/02/02 14:40:44;;;;;;;5.70;1.30;;;8.20;1.00;;;;;;5134950;27;20208;-59
2022/02/02 14:43:13;;;;;;;10.63;1.57;;;;;;;;;;5132107;27;20513;-58
2022/02/02 14:45:45;;;;;;;7.87;1.70;;;8.00;1.00;;;;;;5134104;27;20467;-59
2022/02/02 14:48:21;;;;;;;1.47;1.00;;;7.80;1.00;;;;;;5134293;27;20413;-58
2022/02/02 14:51:20;;;;;;;2.83;1.23;;;7.60;1.00;;;;;;5133757;27;20466;-58
2022/02/02 14:53:45;;;;;;;6.27;1.40;;;7.60;1.00;;;;;;5133504;27;20883;-59
2022/02/02 15:08:52;;;;;;;3.37;1.10;;;7.50;1.00;;;;;;5135049;27;20799;-59
2022/02/02 15:28:47;;;;;;;5.20;1.53;;;7.30;1.00;;;;;;5134318;27;20537;-58
2022/02/02 15:31:14;;;;;;;9.10;2.40;;;7.20;1.00;;;;;;5133825;27;20266;-58
2022/02/02 15:33:40;;;;;;;6.10;1.97;;;7.20;1.00;;;;;;5133527;27;21108;-58
2022/02/02 15:38:47;;;;;;;6.10;2.00;;;7.00;1.00;;;;;;5133317;27;20442;-59
2022/02/02 15:41:20;;;;;;;3.63;1.60;;;7.00;1.00;;;;;;5133461;27;20808;-59
2022/02/02 15:44:53;;;;;;;9.30;1.63;;;7.00;1.00;;;;;;5133502;27;20446;-59
2022/02/02 16:00:39;;;;;;;5.63;2.10;;;6.70;1.00;;;;;;5092322;28;20456;-58
2022/02/02 16:03:04;;;;;;;4.90;2.10;;;6.60;1.00;;;;;;5091607;28;20407;-58
2022/02/02 16:05:40;;;;;;;5.13;1.60;;;6.30;1.00;;;;;;5090984;28;20448;-58
2022/02/02 16:08:08;;;;;;;7.30;1.70;;;6.10;1.00;;;;;;5091305;28;20428;-58
2022/02/02 16:18:56;;;;;;;7.20;2.43;;;6.20;1.00;;;;;;5058787;28;20433;-57
2022/02/02 16:37:41;;;;;;;8.00;2.10;;;6.20;1.00;;;;;;5091309;28;20433;-59
2022/02/02 16:40:13;;;;;;;3.70;1.30;;;6.20;1.00;;;;;;5091514;28;20486;-58
2022/02/02 16:45:23;;;;;;;3.50;1.30;;;;;;;;;;5114777;27;20519;-58
2022/02/02 16:47:49;;;;;;;11.47;2.23;;;6.10;1.00;;;;;;5133887;27;20777;-59
2022/02/02 16:50:20;;;;;;;9.27;1.97;;;;;;;;;;5132104;27;20582;-58
2022/02/02 16:52:49;;;;;;;6.43;1.60;;;6.10;1.00;;;;;;5132050;27;20427;-58
2022/02/02 16:55:32;;;;;;;6.20;2.27;;;6.10;1.00;;;;;;5131908;27;20427;-57
2022/02/02 16:58:12;;;;;;;6.27;1.83;;;;;;;;;;5125632;27;20453;-58
2022/02/02 17:30:34;;;;;;;6.73;1.50;;;;;;;;;;5127945;27;20816;-58
2022/02/02 17:33:29;;;;;;;5.80;2.03;;;6.20;1.00;;;;;;5129082;27;20776;-59
2022/02/02 17:41:35;;;;;;;3.63;1.20;;;;;;;;;;5128099;27;20485;-63
2022/02/02 17:44:14;;;;;;;6.33;1.97;;;6.20;1.00;;;;;;5110727;27;20531;-67
2022/02/02 18:18:51;;;;;;;7.10;1.70;;;;;;;;;;5129762;27;20438;-66
2022/02/02 18:21:19;;;;;;;2.47;1.40;;;6.20;1.00;;;;;;5130951;28;20178;-63
2022/02/02 18:23:53;;;;;;;4.43;1.37;;;6.20;1.00;;;;;;5131336;28;20522;-64
2022/02/02 18:26:32;;;;;;;11.83;2.53;;;6.10;1.00;;;;;;5130911;28;20417;-71
2022/02/02 18:33:00;;;;;;;7.77;1.70;;;;;;;;;;5058285;28;20982;-70
2022/02/02 18:35:45;;;;;;;4.10;1.30;;;;;;;;;;5069290;28;20464;-70
2022/02/02 18:49:14;;;;;;;5.00;1.70;;;;;;;;;;5133148;27;20450;-69
2022/02/02 19:01:10;;;;;;;3.60;1.43;;;;;;;;;;5111333;27;20503;-66
2022/02/02 19:06:43;;;;;;;4.30;1.30;;;;;;;;;;5136228;27;21065;-67
2022/02/02 20:06:19;;;;;;;2.90;1.00;;;5.90;1.00;;;;;;5126793;27;20962;-68
2022/02/02 20:11:41;;;;;;;3.47;1.67;;;5.80;1.00;;;;;;5131268;27;20471;-66
2022/02/02 20:14:07;;;;;;;7.40;1.23;;;5.80;1.00;;;;;;5133007;27;20931;-65
2022/02/02 20:16:33;;;;;;;5.37;1.40;;;5.80;1.00;;;;;;5132969;27;20915;-67
2022/02/02 20:19:05;;;;;;;7.63;1.80;;;5.70;1.00;;;;;;5132804;27;20438;-67
2022/02/02 20:21:45;;;;;;;5.17;1.43;;;5.60;1.00;;;;;;5132861;27;20522;-65
2022/02/02 20:24:11;;;;;;;4.77;1.13;;;5.70;1.00;;;;;;5115225;27;20479;-66
2022/02/02 20:26:40;;;;;;;9.73;1.70;;;5.70;1.00;;;;;;5114152;27;20478;-67
2022/02/02 20:29:06;;;;;;;1.53;1.03;;;5.70;1.00;;;;;;5132779;27;20318;-67
2022/02/02 20:31:32;;;;;;;4.20;1.30;;;5.70;1.00;;;;;;5114350;27;20549;-68
2022/02/02 20:33:59;;;;;;;7.53;1.40;;;5.80;1.00;;;;;;5132721;27;20937;-68
2022/02/02 20:36:24;;;;;;;6.43;1.77;;;5.70;1.00;;;;;;5132418;27;20431;-67
2022/02/02 20:38:50;;;;;;;2.90;1.30;;;5.70;1.00;;;;;;5132511;27;20431;-67
2022/02/02 20:41:15;;;;;;;2.50;1.00;;;5.80;1.00;;;;;;5129567;27;20264;-67
2022/02/02 21:05:30;;;;;;;8.73;1.87;;;5.60;1.00;;;;;;5129569;27;20450;-66
2022/02/02 21:10:31;;;;;;;10.67;2.40;;;5.70;1.00;;;;;;5130039;27;20466;-69
2022/02/02 21:15:43;;;;;;;4.53;1.47;;;5.60;1.00;;;;;;5130209;27;20454;-65
2022/02/02 21:18:13;;;;;;;6.80;1.63;;;5.50;1.00;;;;;;5130062;27;20449;-65
2022/02/02 21:20:50;;;;;;;3.10;1.43;;;5.40;1.00;;;;;;5110639;27;20447;-67
2022/02/02 21:26:14;;;;;;;4.00;1.90;;;5.40;1.00;;;;;;5129614;27;20508;-67
2022/02/02 21:28:37;;;;;;;8.10;1.97;;;5.40;1.00;;;;;;5129222;27;20453;-67
2022/02/02 21:31:04;;;;;;;6.23;1.83;;;5.40;1.00;;;;;;5131690;27;20458;-65
2022/02/02 21:33:31;;;;;;;8.47;1.57;;;5.30;1.00;;;;;;5114425;27;20430;-67
2022/02/02 21:35:58;;;;;;;7.70;2.40;;;4.20;1.00;;;;;;5131687;27;20431;-66
2022/02/02 21:40:54;;;;;;;7.87;1.83;;;5.10;1.00;;;;;;5131238;27;20850;-66
2022/02/02 21:43:21;;;;;;;4.33;1.20;;;5.10;1.00;;;;;;5131163;27;20414;-67
2022/02/02 21:45:46;;;;;;;7.70;1.73;;;5.20;1.00;;;;;;5112102;27;20471;-66
2022/02/02 21:48:13;;;;;;;5.63;1.80;;;5.20;1.00;;;;;;5130932;27;20451;-65
2022/02/02 21:51:03;;;;;;;8.17;1.50;;;;;;;;;;5130844;27;20201;-66
2022/02/02 21:53:28;;;;;;;6.47;1.90;;;5.00;1.00;;;;;;5130725;27;20519;-65
2022/02/02 21:55:53;;;;;;;6.17;1.50;;;4.90;1.00;;;;;;5130985;27;21000;-68
2022/02/02 21:58:19;;;;;;;10.83;2.27;;;4.90;1.00;;;;;;5112627;28;20180;-64
2022/02/02 22:00:44;;;;;;;7.87;1.80;;;4.90;1.00;;;;;;5130957;27;20634;-66
2022/02/02 22:03:11;;;;;;;5.73;1.47;;;4.80;1.00;;;;;;5131108;28;20495;-66
2022/02/02 22:05:37;;;;;;;6.63;1.77;;;;;;;;;;5130969;28;20709;-65
2022/02/02 22:08:07;;;;;;;6.10;2.00;;;4.80;1.00;;;;;;5131197;28;20738;-65
2022/02/02 22:10:33;;;;;;;6.30;1.63;;;4.90;1.00;;;;;;5131057;28;20986;-64
2022/02/02 22:12:59;;;;;;;10.63;2.73;;;;;;;;;;5131178;28;20439;-66
2022/02/02 22:15:37;;;;;;;7.97;1.87;;;;;;;;;;5132005;27;21568;-65
2022/02/02 22:18:05;;;;;;;5.63;1.70;;;4.80;1.00;;;;;;5130985;28;20431;-66
2022/02/02 22:20:32;;;;;;;11.10;1.80;;;4.80;1.00;;;;;;5131033;27;20483;-66
2022/02/02 22:22:57;;;;;;;3.70;1.30;;;4.70;1.00;;;;;;5112203;28;21016;-65
2022/02/02 22:25:23;;;;;;;8.53;2.37;;;4.70;1.00;;;;;;5130812;28;20430;-65
2022/02/02 22:27:49;;;;;;;8.47;3.20;;;4.70;1.00;;;;;;5110879;28;20185;-65
2022/02/02 22:30:16;;;;;;;5.40;1.67;;;4.70;1.00;;;;;;5131310;27;20800;-66
2022/02/02 22:32:42;;;;;;;6.30;1.70;;;4.60;1.00;;;;;;5132554;27;20450;-64
2022/02/02 22:35:08;;;;;;;6.90;1.23;;;4.70;1.00;;;;;;5134512;27;20438;-64
2022/02/02 22:37:34;;;;;;;13.50;2.00;;;4.70;1.00;;;;;;5132809;27;20181;-64
2022/02/02 22:40:00;;;;;;;11.77;2.00;;;;;;;;;;5134104;27;21013;-65
2022/02/02 22:42:28;;;;;;;8.00;1.90;;;4.60;1.00;;;;;;5133230;27;20208;-65
2022/02/02 22:44:57;;;;;;;8.70;1.30;;;4.50;1.00;;;;;;5130969;27;20470;-65
2022/02/02 22:47:23;;;;;;;17.00;3.10;;;4.50;1.00;;;;;;5115878;27;20442;-66
2022/02/02 22:49:51;;;;;;;5.07;2.13;;;4.50;1.00;;;;;;5134177;27;20426;-65
2022/02/02 22:52:19;;;;;;;8.73;1.70;;;4.50;1.00;;;;;;5134633;27;20212;-65
2022/02/02 22:54:45;;;;;;;5.67;1.40;;;4.50;1.00;;;;;;5133263;27;20495;-66
2022/02/02 22:57:10;;;;;;;9.30;2.60;;;4.50;1.00;;;;;;5132172;27;20833;-65
2022/02/02 22:59:39;;;;;;;4.07;1.30;;;4.50;1.00;;;;;;5133976;27;20218;-65
2022/02/02 23:02:19;;;;;;;2.80;1.13;;;4.40;1.00;;;;;;5115882;27;20587;-65
2022/02/02 23:04:45;;;;;;;5.90;1.87;;;4.40;1.00;;;;;;5134198;27;20426;-66
2022/02/02 23:07:11;;;;;;;8.37;2.30;;;4.40;1.00;;;;;;5133619;27;20765;-66
2022/02/02 23:09:37;;;;;;;5.43;1.47;;;4.40;1.00;;;;;;5132049;27;20910;-65
2022/02/02 23:12:03;;;;;;;9.73;2.10;;;4.40;1.00;;;;;;5114831;27;20454;-65
2022/02/02 23:14:34;;;;;;;3.50;1.33;;;4.30;1.00;;;;;;5134389;27;20439;-65
2022/02/02 23:17:00;;;;;;;6.23;1.60;;;4.30;1.00;;;;;;5131631;27;20415;-65
2022/02/02 23:19:26;;;;;;;6.60;1.70;;;4.30;1.00;;;;;;5136079;27;20480;-65
2022/02/02 23:21:51;;;;;;;7.97;1.63;;;4.30;1.00;;;;;;5133409;27;20473;-65
2022/02/02 23:24:19;;;;;;;4.20;1.40;;;4.20;1.00;;;;;;5113049;27;20181;-64
2022/02/02 23:26:47;;;;;;;6.97;2.20;;;4.20;1.00;;;;;;5130003;27;20197;-65
2022/02/02 23:29:16;;;;;;;2.90;1.60;;;4.20;1.00;;;;;;5114578;27;20439;-65
2022/02/02 23:31:42;;;;;;;11.93;2.10;;;4.20;1.00;;;;;;5132576;27;20816;-65
2022/02/02 23:34:07;;;;;;;7.87;1.77;;;4.20;1.00;;;;;;5131322;27;20427;-65
2022/02/02 23:36:33;;;;;;;8.10;1.83;;;4.30;1.00;;;;;;5133151;27;20430;-65
2022/02/02 23:39:00;;;;;;;9.87;2.00;;;4.30;1.00;;;;;;5131402;27;20205;-65
2022/02/02 23:43:58;;;;;;;11.43;1.97;;;;;;;;;;5130117;27;20595;-66
2022/02/02 23:46:26;;;;;;;6.30;1.97;;;4.20;1.00;;;;;;5129755;27;21043;-64
2022/02/02 23:49:13;;;;;;;6.70;2.00;;;4.20;1.00;;;;;;5131360;27;20439;-66
2022/02/02 23:51:44;;;;;;;8.70;2.13;;;4.20;1.00;;;;;;5127254;27;20808;-66
2022/02/02 23:54:09;;;;;;;8.80;1.90;;;4.10;1.00;;;;;;5130011;27;20441;-65
2022/02/02 23:57:06;;;;;;;9.37;2.33;;;4.10;1.00;;;;;;5131061;27;20438;-66
2022/02/02 23:59:52;;;;;;;6.30;2.67;;;4.20;1.00;;;;;;5130908;27;20169;-66
